sensor_id;sensor_type;location;lat;lon;timestamp;pressure;altitude;pressure_sealevel;temperature;humidity
71697;BME280;68167;59.120;37.898;2023-12-04T00:00:12;99225.56;;;-6.62;76.69
71697;BME280;68167;59.120;37.898;2023-12-04T00:02:40;99187.69;;;-6.79;76.75
71697;BME280;68167;59.120;37.898;2023-12-04T00:05:07;99232.34;;;-6.61;76.33
71697;BME280;68167;59.120;37.898;2023-12-04T00:07:34;99231.53;;;-6.61;76.77
71697;BME280;68167;59.120;37.898;2023-12-04T00:10:00;99164.56;;;-6.97;76.47
71697;BME280;68167;59.120;37.898;2023-12-04T00:12:27;99157.13;;;-7.00;76.66
71697;BME280;68167;59.120;37.898;2023-12-04T00:14:53;99204.19;;;-6.72;76.15
71697;BME280;68167;59.120;37.898;2023-12-04T00:17:19;99178.28;;;-6.97;76.38
71697;BME280;68167;59.120;37.898;2023-12-04T00:19:46;99205.50;;;-6.76;76.65
71697;BME280;68167;59.120;37.898;2023-12-04T00:22:13;99169.41;;;-6.94;76.52
71697;BME280;68167;59.120;37.898;2023-12-04T00:24:39;99232.19;;;-6.59;76.63
71697;BME280;68167;59.120;37.898;2023-12-04T00:27:05;99162.78;;;-6.97;76.92
71697;BME280;68167;59.120;37.898;2023-12-04T00:29:32;99211.00;;;-6.71;76.65
71697;BME280;68167;59.120;37.898;2023-12-04T00:31:58;99199.81;;;-6.80;76.29
71697;BME280;68167;59.120;37.898;2023-12-04T00:34:24;99196.59;;;-6.74;76.51
71697;BME280;68167;59.120;37.898;2023-12-04T00:36:51;99202.75;;;-6.67;77.10
71697;BME280;68167;59.120;37.898;2023-12-04T00:39:17;99180.09;;;-6.81;76.17
71697;BME280;68167;59.120;37.898;2023-12-04T00:41:43;99121.25;;;-7.19;76.77
71697;BME280;68167;59.120;37.898;2023-12-04T00:44:10;99035.22;;;-7.78;76.97
71697;BME280;68167;59.120;37.898;2023-12-04T00:46:36;99211.31;;;-6.66;76.93
71697;BME280;68167;59.120;37.898;2023-12-04T00:49:03;99206.78;;;-6.64;77.40
71697;BME280;68167;59.120;37.898;2023-12-04T00:51:37;99197.75;;;-6.68;77.05
71697;BME280;68167;59.120;37.898;2023-12-04T00:54:03;99208.56;;;-6.65;76.56
71697;BME280;68167;59.120;37.898;2023-12-04T00:56:29;99228.31;;;-6.63;76.75
71697;BME280;68167;59.120;37.898;2023-12-04T00:58:56;99205.03;;;-6.63;76.59
71697;BME280;68167;59.120;37.898;2023-12-04T01:01:22;99173.78;;;-6.86;76.38
71697;BME280;68167;59.120;37.898;2023-12-04T01:03:49;99229.13;;;-6.63;76.49
71697;BME280;68167;59.120;37.898;2023-12-04T01:06:22;99216.66;;;-6.68;75.90
71697;BME280;68167;59.120;37.898;2023-12-04T01:08:49;99166.19;;;-6.96;76.79
71697;BME280;68167;59.120;37.898;2023-12-04T01:11:17;99197.88;;;-6.86;76.15
71697;BME280;68167;59.120;37.898;2023-12-04T01:13:45;99187.03;;;-6.89;76.43
71697;BME280;68167;59.120;37.898;2023-12-04T01:16:12;99194.00;;;-6.82;76.67
71697;BME280;68167;59.120;37.898;2023-12-04T01:18:38;99191.72;;;-6.85;76.17
71697;BME280;68167;59.120;37.898;2023-12-04T01:21:05;99187.34;;;-6.92;76.29
71697;BME280;68167;59.120;37.898;2023-12-04T01:23:31;99063.81;;;-7.72;76.74
71697;BME280;68167;59.120;37.898;2023-12-04T01:25:58;99183.31;;;-6.95;76.33
71697;BME280;68167;59.120;37.898;2023-12-04T01:28:24;99188.31;;;-6.93;76.49
71697;BME280;68167;59.120;37.898;2023-12-04T01:30:51;99189.44;;;-6.96;76.28
71697;BME280;68167;59.120;37.898;2023-12-04T01:33:17;99165.84;;;-7.09;76.18
71697;BME280;68167;59.120;37.898;2023-12-04T01:35:44;99107.97;;;-7.41;76.46
71697;BME280;68167;59.120;37.898;2023-12-04T01:38:10;99137.88;;;-7.30;76.70
71697;BME280;68167;59.120;37.898;2023-12-04T01:40:37;99174.41;;;-7.09;76.63
71697;BME280;68167;59.120;37.898;2023-12-04T01:43:03;99127.00;;;-7.42;76.37
71697;BME280;68167;59.120;37.898;2023-12-04T01:45:30;99201.09;;;-7.00;76.40
71697;BME280;68167;59.120;37.898;2023-12-04T01:47:57;99193.97;;;-6.98;76.10
71697;BME280;68167;59.120;37.898;2023-12-04T01:50:24;99184.91;;;-7.02;76.40
71697;BME280;68167;59.120;37.898;2023-12-04T01:52:52;99127.50;;;-7.38;76.56
71697;BME280;68167;59.120;37.898;2023-12-04T01:55:20;99181.69;;;-7.04;76.49
71697;BME280;68167;59.120;37.898;2023-12-04T01:57:48;99100.81;;;-7.55;76.60
71697;BME280;68167;59.120;37.898;2023-12-04T02:00:14;99208.19;;;-6.94;76.54
71697;BME280;68167;59.120;37.898;2023-12-04T02:02:41;99194.44;;;-7.03;76.09
71697;BME280;68167;59.120;37.898;2023-12-04T02:05:09;99100.97;;;-7.56;76.40
71697;BME280;68167;59.120;37.898;2023-12-04T02:07:36;99199.31;;;-7.00;76.55
71697;BME280;68167;59.120;37.898;2023-12-04T02:10:05;99183.44;;;-7.05;76.43
71697;BME280;68167;59.120;37.898;2023-12-04T02:12:34;99195.75;;;-6.99;76.77
71697;BME280;68167;59.120;37.898;2023-12-04T02:15:01;99222.78;;;-6.85;76.97
71697;BME280;68167;59.120;37.898;2023-12-04T02:17:34;99200.94;;;-6.90;76.86
71697;BME280;68167;59.120;37.898;2023-12-04T02:20:01;99179.75;;;-7.02;76.64
71697;BME280;68167;59.120;37.898;2023-12-04T02:22:30;99211.94;;;-6.80;76.17
71697;BME280;68167;59.120;37.898;2023-12-04T02:24:58;99143.06;;;-7.22;76.48
71697;BME280;68167;59.120;37.898;2023-12-04T02:27:37;99200.78;;;-6.89;76.85
71697;BME280;68167;59.120;37.898;2023-12-04T02:30:10;99194.47;;;-6.94;76.49
71697;BME280;68167;59.120;37.898;2023-12-04T02:32:43;99196.25;;;-6.95;76.38
71697;BME280;68167;59.120;37.898;2023-12-04T02:35:12;99156.78;;;-7.21;76.39
71697;BME280;68167;59.120;37.898;2023-12-04T02:37:40;99147.56;;;-7.24;76.40
71697;BME280;68167;59.120;37.898;2023-12-04T02:40:08;99153.06;;;-7.19;76.46
71697;BME280;68167;59.120;37.898;2023-12-04T02:42:34;99208.06;;;-6.84;76.48
71697;BME280;68167;59.120;37.898;2023-12-04T02:45:01;99214.53;;;-6.88;76.58
71697;BME280;68167;59.120;37.898;2023-12-04T02:47:30;99211.63;;;-6.85;76.19
71697;BME280;68167;59.120;37.898;2023-12-04T02:49:56;99212.91;;;-6.81;76.30
71697;BME280;68167;59.120;37.898;2023-12-04T02:52:23;99197.22;;;-6.96;76.02
71697;BME280;68167;59.120;37.898;2023-12-04T02:54:49;99208.38;;;-6.87;76.49
71697;BME280;68167;59.120;37.898;2023-12-04T02:57:16;99179.25;;;-7.06;75.87
71697;BME280;68167;59.120;37.898;2023-12-04T02:59:42;99178.75;;;-7.09;76.18
71697;BME280;68167;59.120;37.898;2023-12-04T03:02:09;99216.63;;;-6.92;76.00
71697;BME280;68167;59.120;37.898;2023-12-04T03:04:35;99158.88;;;-7.25;76.10
71697;BME280;68167;59.120;37.898;2023-12-04T03:07:02;99211.75;;;-6.95;76.05
71697;BME280;68167;59.120;37.898;2023-12-04T03:09:29;99161.31;;;-7.23;76.26
71697;BME280;68167;59.120;37.898;2023-12-04T03:11:55;99194.44;;;-7.03;75.77
71697;BME280;68167;59.120;37.898;2023-12-04T03:14:22;99154.84;;;-7.27;76.30
71697;BME280;68167;59.120;37.898;2023-12-04T03:16:49;99215.66;;;-6.91;75.92
71697;BME280;68167;59.120;37.898;2023-12-04T03:19:16;99149.47;;;-7.34;75.66
71697;BME280;68167;59.120;37.898;2023-12-04T03:21:42;99192.34;;;-7.07;75.98
71697;BME280;68167;59.120;37.898;2023-12-04T03:24:09;99125.88;;;-7.47;75.94
71697;BME280;68167;59.120;37.898;2023-12-04T03:26:35;99159.53;;;-7.23;75.95
71697;BME280;68167;59.120;37.898;2023-12-04T03:29:02;99195.91;;;-7.00;76.15
71697;BME280;68167;59.120;37.898;2023-12-04T03:31:28;99217.28;;;-6.82;75.69
71697;BME280;68167;59.120;37.898;2023-12-04T03:33:55;99129.44;;;-7.40;75.53
71697;BME280;68167;59.120;37.898;2023-12-04T03:36:22;99181.34;;;-7.09;75.70
71697;BME280;68167;59.120;37.898;2023-12-04T03:38:48;99223.09;;;-6.80;75.91
71697;BME280;68167;59.120;37.898;2023-12-04T03:41:15;99192.66;;;-7.02;76.03
71697;BME280;68167;59.120;37.898;2023-12-04T03:43:42;99235.38;;;-6.82;75.52
71697;BME280;68167;59.120;37.898;2023-12-04T03:46:09;99140.25;;;-7.45;75.57
71697;BME280;68167;59.120;37.898;2023-12-04T03:48:35;99232.63;;;-6.88;75.47
71697;BME280;68167;59.120;37.898;2023-12-04T03:51:02;99175.19;;;-7.24;75.24
71697;BME280;68167;59.120;37.898;2023-12-04T03:53:29;99196.03;;;-7.10;75.56
71697;BME280;68167;59.120;37.898;2023-12-04T03:55:58;99172.63;;;-7.24;75.61
71697;BME280;68167;59.120;37.898;2023-12-04T03:58:25;99227.13;;;-6.93;76.04
71697;BME280;68167;59.120;37.898;2023-12-04T04:00:53;99235.69;;;-6.93;75.59
71697;BME280;68167;59.120;37.898;2023-12-04T04:03:20;99203.66;;;-7.08;75.58
71697;BME280;68167;59.120;37.898;2023-12-04T04:05:46;99192.16;;;-7.22;75.41
71697;BME280;68167;59.120;37.898;2023-12-04T04:08:13;99183.09;;;-7.26;75.26
71697;BME280;68167;59.120;37.898;2023-12-04T04:10:39;99221.75;;;-7.08;75.78
71697;BME280;68167;59.120;37.898;2023-12-04T04:13:06;99223.53;;;-7.09;75.31
71697;BME280;68167;59.120;37.898;2023-12-04T04:15:32;99174.34;;;-7.41;75.49
71697;BME280;68167;59.120;37.898;2023-12-04T04:17:59;99176.28;;;-7.43;75.66
71697;BME280;68167;59.120;37.898;2023-12-04T04:20:25;99242.28;;;-7.07;75.29
71697;BME280;68167;59.120;37.898;2023-12-04T04:22:51;99241.78;;;-7.10;75.51
71697;BME280;68167;59.120;37.898;2023-12-04T04:25:19;99243.09;;;-7.06;75.26
71697;BME280;68167;59.120;37.898;2023-12-04T04:27:48;99229.66;;;-7.18;75.86
71697;BME280;68167;59.120;37.898;2023-12-04T04:30:14;99222.84;;;-7.27;75.58
71697;BME280;68167;59.120;37.898;2023-12-04T04:32:41;99241.47;;;-7.15;75.36
71697;BME280;68167;59.120;37.898;2023-12-04T04:35:07;99242.91;;;-7.13;75.02
71697;BME280;68167;59.120;37.898;2023-12-04T04:37:34;99222.50;;;-7.32;75.27
71697;BME280;68167;59.120;37.898;2023-12-04T04:40:01;99232.06;;;-7.24;74.76
71697;BME280;68167;59.120;37.898;2023-12-04T04:42:30;99257.59;;;-7.13;74.90
71697;BME280;68167;59.120;37.898;2023-12-04T04:44:57;99077.97;;;-8.26;75.06
71697;BME280;68167;59.120;37.898;2023-12-04T04:47:23;99206.16;;;-7.41;74.91
71697;BME280;68167;59.120;37.898;2023-12-04T04:49:50;99097.09;;;-8.11;75.43
71697;BME280;68167;59.120;37.898;2023-12-04T04:52:16;99261.81;;;-7.12;75.25
71697;BME280;68167;59.120;37.898;2023-12-04T04:54:43;99238.84;;;-7.23;74.88
71697;BME280;68167;59.120;37.898;2023-12-04T04:57:09;99222.97;;;-7.37;75.70
71697;BME280;68167;59.120;37.898;2023-12-04T04:59:36;99257.13;;;-7.17;74.91
71697;BME280;68167;59.120;37.898;2023-12-04T05:02:03;99252.09;;;-7.26;75.00
71697;BME280;68167;59.120;37.898;2023-12-04T05:04:29;99199.31;;;-7.58;75.10
71697;BME280;68167;59.120;37.898;2023-12-04T05:06:56;99186.34;;;-7.66;74.97
71697;BME280;68167;59.120;37.898;2023-12-04T05:09:22;99210.31;;;-7.48;75.12
71697;BME280;68167;59.120;37.898;2023-12-04T05:11:49;99180.03;;;-7.72;75.40
71697;BME280;68167;59.120;37.898;2023-12-04T05:14:15;99223.56;;;-7.51;75.51
71697;BME280;68167;59.120;37.898;2023-12-04T05:16:42;99258.88;;;-7.25;75.44
71697;BME280;68167;59.120;37.898;2023-12-04T05:19:08;99244.47;;;-7.36;75.18
71697;BME280;68167;59.120;37.898;2023-12-04T05:21:35;99208.16;;;-7.60;75.38
71697;BME280;68167;59.120;37.898;2023-12-04T05:24:01;99268.88;;;-7.31;75.09
71697;BME280;68167;59.120;37.898;2023-12-04T05:26:28;99197.75;;;-7.77;75.04
71697;BME280;68167;59.120;37.898;2023-12-04T05:28:54;99224.47;;;-7.60;74.77
71697;BME280;68167;59.120;37.898;2023-12-04T05:31:21;99214.09;;;-7.68;75.20
71697;BME280;68167;59.120;37.898;2023-12-04T05:33:47;99276.63;;;-7.31;75.04
71697;BME280;68167;59.120;37.898;2023-12-04T05:36:14;99113.28;;;-8.35;75.13
71697;BME280;68167;59.120;37.898;2023-12-04T05:38:40;99252.31;;;-7.46;74.96
71697;BME280;68167;59.120;37.898;2023-12-04T05:41:07;99270.75;;;-7.41;75.46
71697;BME280;68167;59.120;37.898;2023-12-04T05:43:33;99237.19;;;-7.67;75.68
71697;BME280;68167;59.120;37.898;2023-12-04T05:46:00;99272.66;;;-7.51;75.35
71697;BME280;68167;59.120;37.898;2023-12-04T05:48:26;99176.09;;;-8.18;74.13
71697;BME280;68167;59.120;37.898;2023-12-04T05:50:53;99157.00;;;-8.33;75.24
71697;BME280;68167;59.120;37.898;2023-12-04T05:53:19;99201.81;;;-8.08;75.01
71697;BME280;68167;59.120;37.898;2023-12-04T05:55:46;99225.78;;;-7.90;75.06
71697;BME280;68167;59.120;37.898;2023-12-04T05:58:12;99213.75;;;-8.07;74.64
71697;BME280;68167;59.120;37.898;2023-12-04T06:00:39;99296.34;;;-7.55;74.63
71697;BME280;68167;59.120;37.898;2023-12-04T06:03:07;99278.88;;;-7.61;74.71
71697;BME280;68167;59.120;37.898;2023-12-04T06:05:33;99215.66;;;-8.09;74.60
71697;BME280;68167;59.120;37.898;2023-12-04T06:08:05;99201.91;;;-8.18;74.75
71697;BME280;68167;59.120;37.898;2023-12-04T06:10:31;99287.09;;;-7.66;74.70
71697;BME280;68167;59.120;37.898;2023-12-04T06:12:59;99239.63;;;-7.99;75.24
71697;BME280;68167;59.120;37.898;2023-12-04T06:15:26;99297.72;;;-7.69;75.50
71697;BME280;68167;59.120;37.898;2023-12-04T06:17:53;99303.41;;;-7.66;75.05
71697;BME280;68167;59.120;37.898;2023-12-04T06:20:19;99258.34;;;-7.97;74.69
71697;BME280;68167;59.120;37.898;2023-12-04T06:22:46;99302.09;;;-7.70;74.67
71697;BME280;68167;59.120;37.898;2023-12-04T06:25:13;99317.47;;;-7.60;74.98
71697;BME280;68167;59.120;37.898;2023-12-04T06:27:40;99260.47;;;-7.92;75.08
71697;BME280;68167;59.120;37.898;2023-12-04T06:30:07;99272.78;;;-7.86;74.91
71697;BME280;68167;59.120;37.898;2023-12-04T06:32:34;99278.63;;;-7.84;75.14
71697;BME280;68167;59.120;37.898;2023-12-04T06:35:01;99306.50;;;-7.62;75.36
71697;BME280;68167;59.120;37.898;2023-12-04T06:37:29;99256.38;;;-8.03;74.98
71697;BME280;68167;59.120;37.898;2023-12-04T06:39:59;99312.63;;;-7.63;74.57
71697;BME280;68167;59.120;37.898;2023-12-04T06:42:26;99314.91;;;-7.60;75.30
71697;BME280;68167;59.120;37.898;2023-12-04T06:44:53;99328.03;;;-7.53;74.96
71697;BME280;68167;59.120;37.898;2023-12-04T06:47:22;99269.50;;;-7.97;74.96
71697;BME280;68167;59.120;37.898;2023-12-04T06:49:49;99322.50;;;-7.58;74.58
71697;BME280;68167;59.120;37.898;2023-12-04T06:52:16;99282.47;;;-7.88;75.11
71697;BME280;68167;59.120;37.898;2023-12-04T06:54:42;99267.72;;;-7.96;74.70
71697;BME280;68167;59.120;37.898;2023-12-04T06:57:09;99332.31;;;-7.62;74.48
71697;BME280;68167;59.120;37.898;2023-12-04T06:59:35;99312.41;;;-7.70;74.57
71697;BME280;68167;59.120;37.898;2023-12-04T07:02:02;99324.06;;;-7.66;75.13
71697;BME280;68167;59.120;37.898;2023-12-04T07:04:29;99303.50;;;-7.75;74.89
71697;BME280;68167;59.120;37.898;2023-12-04T07:06:56;99324.53;;;-7.70;74.87
71697;BME280;68167;59.120;37.898;2023-12-04T07:09:24;99332.63;;;-7.65;74.96
71697;BME280;68167;59.120;37.898;2023-12-04T07:11:50;99289.03;;;-7.94;75.35
71697;BME280;68167;59.120;37.898;2023-12-04T07:14:17;99322.91;;;-7.71;74.72
71697;BME280;68167;59.120;37.898;2023-12-04T07:16:44;99324.16;;;-7.75;74.68
71697;BME280;68167;59.120;37.898;2023-12-04T07:19:10;99328.94;;;-7.63;75.03
71697;BME280;68167;59.120;37.898;2023-12-04T07:21:37;99291.81;;;-7.87;75.12
71697;BME280;68167;59.120;37.898;2023-12-04T07:24:05;99337.19;;;-7.59;74.63
71697;BME280;68167;59.120;37.898;2023-12-04T07:26:34;99303.47;;;-7.83;74.52
71697;BME280;68167;59.120;37.898;2023-12-04T07:29:01;99355.53;;;-7.44;74.74
71697;BME280;68167;59.120;37.898;2023-12-04T07:31:28;99290.06;;;-7.87;74.72
71697;BME280;68167;59.120;37.898;2023-12-04T07:33:55;99364.31;;;-7.37;74.60
71697;BME280;68167;59.120;37.898;2023-12-04T07:36:22;99299.00;;;-7.73;75.10
71697;BME280;68167;59.120;37.898;2023-12-04T07:38:50;99305.63;;;-7.71;74.61
71697;BME280;68167;59.120;37.898;2023-12-04T07:41:17;99370.19;;;-7.27;74.32
71697;BME280;68167;59.120;37.898;2023-12-04T07:43:44;99363.69;;;-7.31;74.75
71697;BME280;68167;59.120;37.898;2023-12-04T07:46:11;99307.16;;;-7.60;74.40
71697;BME280;68167;59.120;37.898;2023-12-04T07:48:38;99314.75;;;-7.58;74.53
71697;BME280;68167;59.120;37.898;2023-12-04T07:51:06;99338.91;;;-7.42;74.64
71697;BME280;68167;59.120;37.898;2023-12-04T07:53:34;99353.00;;;-7.36;74.62
71697;BME280;68167;59.120;37.898;2023-12-04T07:56:01;99380.06;;;-7.22;74.45
71697;BME280;68167;59.120;37.898;2023-12-04T07:58:30;99380.22;;;-7.24;74.10
71697;BME280;68167;59.120;37.898;2023-12-04T08:00:58;99382.94;;;-7.25;75.01
71697;BME280;68167;59.120;37.898;2023-12-04T08:03:25;99376.16;;;-7.26;74.26
71697;BME280;68167;59.120;37.898;2023-12-04T08:05:51;99376.97;;;-7.26;74.10
71697;BME280;68167;59.120;37.898;2023-12-04T08:08:18;99396.41;;;-7.14;74.33
71697;BME280;68167;59.120;37.898;2023-12-04T08:10:45;99404.81;;;-7.12;74.31
71697;BME280;68167;59.120;37.898;2023-12-04T08:13:12;99338.25;;;-7.44;74.62
71697;BME280;68167;59.120;37.898;2023-12-04T08:15:39;99393.22;;;-7.08;74.68
71697;BME280;68167;59.120;37.898;2023-12-04T08:18:05;99402.97;;;-6.93;74.62
71697;BME280;68167;59.120;37.898;2023-12-04T08:20:32;99350.81;;;-7.23;74.37
71697;BME280;68167;59.120;37.898;2023-12-04T08:22:59;99400.13;;;-6.82;74.73
71697;BME280;68167;59.120;37.898;2023-12-04T08:25:26;99409.88;;;-6.76;74.02
71697;BME280;68167;59.120;37.898;2023-12-04T08:27:52;99342.28;;;-7.15;74.20
71697;BME280;68167;59.120;37.898;2023-12-04T08:30:19;99334.44;;;-7.32;74.37
71697;BME280;68167;59.120;37.898;2023-12-04T08:32:45;99395.63;;;-6.80;74.34
71697;BME280;68167;59.120;37.898;2023-12-04T08:35:13;99432.53;;;-6.70;74.19
71697;BME280;68167;59.120;37.898;2023-12-04T08:37:40;99400.63;;;-6.79;74.25
71697;BME280;68167;59.120;37.898;2023-12-04T08:40:07;99352.50;;;-7.06;74.05
71697;BME280;68167;59.120;37.898;2023-12-04T08:42:34;99360.28;;;-6.98;74.64
71697;BME280;68167;59.120;37.898;2023-12-04T08:45:05;99361.75;;;-6.95;74.19
71697;BME280;68167;59.120;37.898;2023-12-04T08:47:35;99370.38;;;-6.86;73.75
71697;BME280;68167;59.120;37.898;2023-12-04T08:50:01;99389.81;;;-6.74;74.47
71697;BME280;68167;59.120;37.898;2023-12-04T08:52:30;99365.38;;;-6.80;73.70
71697;BME280;68167;59.120;37.898;2023-12-04T08:54:57;99401.03;;;-6.57;73.80
71697;BME280;68167;59.120;37.898;2023-12-04T08:57:23;99384.22;;;-6.61;74.13
71697;BME280;68167;59.120;37.898;2023-12-04T08:59:50;99400.56;;;-6.53;73.93
71697;BME280;68167;59.120;37.898;2023-12-04T09:02:16;99403.47;;;-6.56;73.94
71697;BME280;68167;59.120;37.898;2023-12-04T09:04:43;99360.56;;;-6.75;73.58
71697;BME280;68167;59.120;37.898;2023-12-04T09:07:09;99271.16;;;-7.27;73.63
71697;BME280;68167;59.120;37.898;2023-12-04T09:09:36;99423.28;;;-6.31;73.62
71697;BME280;68167;59.120;37.898;2023-12-04T09:12:03;99422.19;;;-6.20;74.28
71697;BME280;68167;59.120;37.898;2023-12-04T09:14:29;99385.53;;;-6.41;73.95
71697;BME280;68167;59.120;37.898;2023-12-04T09:16:56;99434.03;;;-6.09;74.57
71697;BME280;68167;59.120;37.898;2023-12-04T09:19:22;99358.69;;;-6.40;74.52
71697;BME280;68167;59.120;37.898;2023-12-04T09:21:49;99441.13;;;-5.79;74.19
71697;BME280;68167;59.120;37.898;2023-12-04T09:24:15;99385.78;;;-6.10;74.01
71697;BME280;68167;59.120;37.898;2023-12-04T09:26:42;99433.69;;;-5.74;71.43
71697;BME280;68167;59.120;37.898;2023-12-04T09:29:11;99431.13;;;-5.66;72.85
71697;BME280;68167;59.120;37.898;2023-12-04T09:31:38;99418.47;;;-5.77;72.21
71697;BME280;68167;59.120;37.898;2023-12-04T09:34:05;99436.47;;;-5.67;72.47
71697;BME280;68167;59.120;37.898;2023-12-04T09:36:32;99435.16;;;-5.71;72.80
71697;BME280;68167;59.120;37.898;2023-12-04T09:38:58;99419.94;;;-5.74;72.83
71697;BME280;68167;59.120;37.898;2023-12-04T09:41:25;99431.94;;;-5.65;72.67
71697;BME280;68167;59.120;37.898;2023-12-04T09:43:52;99423.00;;;-5.71;72.83
71697;BME280;68167;59.120;37.898;2023-12-04T09:46:19;99425.44;;;-5.69;72.77
71697;BME280;68167;59.120;37.898;2023-12-04T09:48:45;99431.75;;;-5.64;72.81
71697;BME280;68167;59.120;37.898;2023-12-04T09:51:12;99413.78;;;-5.81;72.93
71697;BME280;68167;59.120;37.898;2023-12-04T09:53:40;99439.22;;;-5.60;72.71
71697;BME280;68167;59.120;37.898;2023-12-04T09:56:07;99458.19;;;-5.52;73.01
71697;BME280;68167;59.120;37.898;2023-12-04T09:58:40;99447.97;;;-5.53;73.13
71697;BME280;68167;59.120;37.898;2023-12-04T10:01:07;99400.34;;;-5.77;72.63
71697;BME280;68167;59.120;37.898;2023-12-04T10:03:35;99457.69;;;-5.47;72.95
71697;BME280;68167;59.120;37.898;2023-12-04T10:06:03;99459.00;;;-5.43;72.27
71697;BME280;68167;59.120;37.898;2023-12-04T10:08:31;99457.53;;;-5.46;72.79
71697;BME280;68167;59.120;37.898;2023-12-04T10:10:57;99450.06;;;-5.49;72.77
71697;BME280;68167;59.120;37.898;2023-12-04T10:13:25;99457.69;;;-5.47;72.89
71697;BME280;68167;59.120;37.898;2023-12-04T10:15:51;99433.38;;;-5.54;72.77
71697;BME280;68167;59.120;37.898;2023-12-04T10:18:29;99481.19;;;-5.24;72.60
71697;BME280;68167;59.120;37.898;2023-12-04T10:20:57;99464.19;;;-5.35;72.22
71697;BME280;68167;59.120;37.898;2023-12-04T10:23:38;99484.28;;;-5.29;72.69
71697;BME280;68167;59.120;37.898;2023-12-04T10:26:06;99490.59;;;-5.23;72.01
71697;BME280;68167;59.120;37.898;2023-12-04T10:28:34;99480.72;;;-5.28;72.20
71697;BME280;68167;59.120;37.898;2023-12-04T10:31:01;99430.31;;;-5.58;72.03
71697;BME280;68167;59.120;37.898;2023-12-04T10:33:30;99487.69;;;-5.20;72.29
71697;BME280;68167;59.120;37.898;2023-12-04T10:35:57;99434.34;;;-5.55;72.15
71697;BME280;68167;59.120;37.898;2023-12-04T10:38:24;99485.09;;;-5.20;72.41
71697;BME280;68167;59.120;37.898;2023-12-04T10:40:52;99440.84;;;-5.43;72.05
71697;BME280;68167;59.120;37.898;2023-12-04T10:43:21;99473.41;;;-5.33;71.78
71697;BME280;68167;59.120;37.898;2023-12-04T10:45:49;99497.38;;;-5.14;72.08
71697;BME280;68167;59.120;37.898;2023-12-04T10:48:18;99476.81;;;-5.24;72.61
71697;BME280;68167;59.120;37.898;2023-12-04T10:50:49;99483.94;;;-5.18;72.17
71697;BME280;68167;59.120;37.898;2023-12-04T10:53:16;99461.25;;;-5.32;72.69
71697;BME280;68167;59.120;37.898;2023-12-04T10:55:43;99491.88;;;-5.11;72.37
71697;BME280;68167;59.120;37.898;2023-12-04T10:58:13;99486.19;;;-5.15;72.73
71697;BME280;68167;59.120;37.898;2023-12-04T11:00:47;99492.69;;;-5.11;72.83
71697;BME280;68167;59.120;37.898;2023-12-04T11:03:34;99488.78;;;-5.15;72.89
71697;BME280;68167;59.120;37.898;2023-12-04T11:06:05;99475.38;;;-5.26;72.42
71697;BME280;68167;59.120;37.898;2023-12-04T11:08:36;99505.31;;;-5.16;72.14
71697;BME280;68167;59.120;37.898;2023-12-04T11:11:04;99509.69;;;-5.08;72.75
71697;BME280;68167;59.120;37.898;2023-12-04T11:13:35;99521.53;;;-4.98;72.45
71697;BME280;68167;59.120;37.898;2023-12-04T11:16:12;99509.06;;;-5.10;72.56
71697;BME280;68167;59.120;37.898;2023-12-04T11:18:43;99540.66;;;-4.99;72.26
71697;BME280;68167;59.120;37.898;2023-12-04T11:21:11;99524.47;;;-5.09;72.14
71697;BME280;68167;59.120;37.898;2023-12-04T11:23:38;99475.84;;;-5.47;72.49
71697;BME280;68167;59.120;37.898;2023-12-04T11:26:06;99550.72;;;-5.04;72.36
71697;BME280;68167;59.120;37.898;2023-12-04T11:28:34;99554.13;;;-5.03;72.12
71697;BME280;68167;59.120;37.898;2023-12-04T11:31:03;99501.94;;;-5.41;72.02
71697;BME280;68167;59.120;37.898;2023-12-04T11:33:34;99539.22;;;-5.17;72.03
71697;BME280;68167;59.120;37.898;2023-12-04T11:36:09;99548.97;;;-5.27;71.22
71697;BME280;68167;59.120;37.898;2023-12-04T11:38:38;99539.38;;;-5.35;71.54
71697;BME280;68167;59.120;37.898;2023-12-04T11:41:23;99559.81;;;-5.32;71.60
71697;BME280;68167;59.120;37.898;2023-12-04T11:43:50;99555.41;;;-5.48;71.57
71697;BME280;68167;59.120;37.898;2023-12-04T11:46:25;99512.38;;;-5.83;72.04
71697;BME280;68167;59.120;37.898;2023-12-04T11:48:57;99566.38;;;-5.62;71.52
71697;BME280;68167;59.120;37.898;2023-12-04T11:54:14;99565.06;;;-5.74;71.17
71697;BME280;68167;59.120;37.898;2023-12-04T11:59:37;99559.38;;;-5.94;71.50
71697;BME280;68167;59.120;37.898;2023-12-04T12:02:08;99535.09;;;-6.27;71.40
71697;BME280;68167;59.120;37.898;2023-12-04T12:04:34;99562.19;;;-6.13;71.61
71697;BME280;68167;59.120;37.898;2023-12-04T12:07:02;99573.03;;;-6.18;71.62
71697;BME280;68167;59.120;37.898;2023-12-04T12:09:32;99517.00;;;-6.61;71.68
71697;BME280;68167;59.120;37.898;2023-12-04T12:12:00;99566.13;;;-6.35;71.42
71697;BME280;68167;59.120;37.898;2023-12-04T12:14:31;99584.91;;;-6.33;71.95
71697;BME280;68167;59.120;37.898;2023-12-04T12:16:59;99514.75;;;-6.82;71.24
71697;BME280;68167;59.120;37.898;2023-12-04T12:19:27;99570.59;;;-6.53;72.33
71697;BME280;68167;59.120;37.898;2023-12-04T12:21:53;99561.81;;;-6.60;71.31
71697;BME280;68167;59.120;37.898;2023-12-04T12:24:20;99566.78;;;-6.67;71.73
71697;BME280;68167;59.120;37.898;2023-12-04T12:26:47;99591.28;;;-6.53;71.96
71697;BME280;68167;59.120;37.898;2023-12-04T12:29:13;99587.84;;;-6.62;71.63
71697;BME280;68167;59.120;37.898;2023-12-04T12:31:40;99574.31;;;-6.74;71.77
71697;BME280;68167;59.120;37.898;2023-12-04T12:34:06;99580.81;;;-6.70;71.83
71697;BME280;68167;59.120;37.898;2023-12-04T12:36:33;99578.69;;;-6.74;71.82
71697;BME280;68167;59.120;37.898;2023-12-04T12:39:00;99586.28;;;-6.73;71.60
71697;BME280;68167;59.120;37.898;2023-12-04T12:41:30;99570.88;;;-6.82;71.78
71697;BME280;68167;59.120;37.898;2023-12-04T12:43:57;99570.50;;;-6.87;71.57
71697;BME280;68167;59.120;37.898;2023-12-04T12:46:29;99540.22;;;-7.13;71.63
71697;BME280;68167;59.120;37.898;2023-12-04T12:48:56;99509.34;;;-7.40;71.65
71697;BME280;68167;59.120;37.898;2023-12-04T12:51:23;99585.28;;;-6.98;71.66
71697;BME280;68167;59.120;37.898;2023-12-04T12:53:50;99581.81;;;-7.06;71.62
71697;BME280;68167;59.120;37.898;2023-12-04T12:56:17;99538.94;;;-7.35;71.89